sensor_id;sensor_type;location;lat;lon;timestamp;pressure;altitude;pressure_sealevel;temperature;humidity
11327;BME280;5718;42.138;24.762;2023-07-08T00:01:56;99445.16;;;24.25;100.00
11327;BME280;5718;42.138;24.762;2023-07-08T00:04:23;99439.84;;;24.25;100.00
11327;BME280;5718;42.138;24.762;2023-07-08T00:06:52;99438.13;;;24.24;100.00
11327;BME280;5718;42.138;24.762;2023-07-08T00:09:19;99436.06;;;24.29;100.00
11327;BME280;5718;42.138;24.762;2023-07-08T00:11:46;99430.75;;;24.29;100.00
11327;BME280;5718;42.138;24.762;2023-07-08T00:14:12;99435.13;;;24.30;100.00
11327;BME280;5718;42.138;24.762;2023-07-08T00:16:39;99438.50;;;24.33;100.00
11327;BME280;5718;42.138;24.762;2023-07-08T00:19:08;99436.16;;;24.27;100.00
11327;BME280;5718;42.138;24.762;2023-07-08T00:21:35;99431.31;;;24.35;100.00
11327;BME280;5718;42.138;24.762;2023-07-08T00:24:04;99435.56;;;24.38;100.00
11327;BME280;5718;42.138;24.762;2023-07-08T00:26:31;99437.69;;;24.31;100.00
11327;BME280;5718;42.138;24.762;2023-07-08T00:28:58;99434.63;;;24.39;100.00
11327;BME280;5718;42.138;24.762;2023-07-08T00:31:25;99434.47;;;24.42;100.00
11327;BME280;5718;42.138;24.762;2023-07-08T00:33:53;99431.47;;;24.32;100.00
11327;BME280;5718;42.138;24.762;2023-07-08T00:36:22;99435.03;;;24.31;100.00
11327;BME280;5718;42.138;24.762;2023-07-08T00:38:49;99431.69;;;24.28;100.00
11327;BME280;5718;42.138;24.762;2023-07-08T00:41:21;99430.53;;;24.18;100.00
11327;BME280;5718;42.138;24.762;2023-07-08T00:43:51;99441.38;;;24.13;100.00
11327;BME280;5718;42.138;24.762;2023-07-08T00:46:29;99433.34;;;24.15;100.00
11327;BME280;5718;42.138;24.762;2023-07-08T00:49:03;99445.50;;;24.03;100.00
11327;BME280;5718;42.138;24.762;2023-07-08T00:51:30;99439.94;;;24.07;100.00
11327;BME280;5718;42.138;24.762;2023-07-08T00:53:57;99457.59;;;24.08;100.00
11327;BME280;5718;42.138;24.762;2023-07-08T00:56:27;99461.63;;;24.00;100.00
11327;BME280;5718;42.138;24.762;2023-07-08T00:58:57;99459.03;;;23.98;100.00
11327;BME280;5718;42.138;24.762;2023-07-08T01:01:26;99453.66;;;23.84;100.00
11327;BME280;5718;42.138;24.762;2023-07-08T01:03:59;99445.50;;;23.87;100.00
11327;BME280;5718;42.138;24.762;2023-07-08T01:06:28;99452.34;;;23.91;100.00
11327;BME280;5718;42.138;24.762;2023-07-08T01:08:57;99454.47;;;23.69;100.00
11327;BME280;5718;42.138;24.762;2023-07-08T01:11:25;99461.75;;;23.81;100.00
11327;BME280;5718;42.138;24.762;2023-07-08T01:13:52;99457.81;;;23.72;100.00
11327;BME280;5718;42.138;24.762;2023-07-08T01:16:19;99459.06;;;23.65;100.00
11327;BME280;5718;42.138;24.762;2023-07-08T01:18:46;99455.56;;;23.65;100.00
11327;BME280;5718;42.138;24.762;2023-07-08T01:21:31;99460.75;;;23.50;100.00
11327;BME280;5718;42.138;24.762;2023-07-08T01:24:01;99464.31;;;23.49;100.00
11327;BME280;5718;42.138;24.762;2023-07-08T01:26:30;99465.41;;;23.63;100.00
11327;BME280;5718;42.138;24.762;2023-07-08T01:28:58;99459.94;;;23.48;100.00
11327;BME280;5718;42.138;24.762;2023-07-08T01:31:25;99467.81;;;23.50;100.00
11327;BME280;5718;42.138;24.762;2023-07-08T01:33:53;99466.66;;;23.55;100.00
11327;BME280;5718;42.138;24.762;2023-07-08T01:36:20;99464.41;;;23.48;100.00
11327;BME280;5718;42.138;24.762;2023-07-08T01:38:47;99461.19;;;23.59;100.00
11327;BME280;5718;42.138;24.762;2023-07-08T01:41:16;99458.41;;;23.44;100.00
11327;BME280;5718;42.138;24.762;2023-07-08T01:43:43;99467.91;;;23.48;100.00
11327;BME280;5718;42.138;24.762;2023-07-08T01:46:14;99465.03;;;23.53;100.00
11327;BME280;5718;42.138;24.762;2023-07-08T01:48:45;99470.41;;;23.51;100.00
11327;BME280;5718;42.138;24.762;2023-07-08T01:51:13;99466.19;;;23.47;100.00
11327;BME280;5718;42.138;24.762;2023-07-08T01:53:42;99468.69;;;23.50;100.00
11327;BME280;5718;42.138;24.762;2023-07-08T01:56:10;99475.19;;;23.45;100.00
11327;BME280;5718;42.138;24.762;2023-07-08T01:58:38;99465.75;;;23.39;100.00
11327;BME280;5718;42.138;24.762;2023-07-08T02:01:06;99471.22;;;23.36;100.00
11327;BME280;5718;42.138;24.762;2023-07-08T02:03:33;99478.41;;;23.34;100.00
11327;BME280;5718;42.138;24.762;2023-07-08T02:06:00;99480.72;;;23.40;100.00
11327;BME280;5718;42.138;24.762;2023-07-08T02:08:26;99475.94;;;23.47;100.00
11327;BME280;5718;42.138;24.762;2023-07-08T02:10:55;99488.38;;;23.29;100.00
11327;BME280;5718;42.138;24.762;2023-07-08T02:13:22;99487.75;;;23.24;100.00
11327;BME280;5718;42.138;24.762;2023-07-08T02:15:51;99485.06;;;23.25;100.00
11327;BME280;5718;42.138;24.762;2023-07-08T02:18:18;99491.25;;;23.42;100.00
11327;BME280;5718;42.138;24.762;2023-07-08T02:20:45;99489.06;;;23.33;100.00
11327;BME280;5718;42.138;24.762;2023-07-08T02:23:13;99488.78;;;23.21;100.00
11327;BME280;5718;42.138;24.762;2023-07-08T02:25:39;99492.91;;;23.27;100.00
11327;BME280;5718;42.138;24.762;2023-07-08T02:28:06;99487.34;;;23.32;100.00
11327;BME280;5718;42.138;24.762;2023-07-08T02:30:33;99496.81;;;23.20;100.00
11327;BME280;5718;42.138;24.762;2023-07-08T02:33:01;99499.69;;;23.15;100.00
11327;BME280;5718;42.138;24.762;2023-07-08T02:35:29;99504.91;;;23.17;100.00
11327;BME280;5718;42.138;24.762;2023-07-08T02:37:57;99503.84;;;23.04;100.00
11327;BME280;5718;42.138;24.762;2023-07-08T02:40:24;99507.91;;;23.11;100.00
11327;BME280;5718;42.138;24.762;2023-07-08T02:42:51;99509.78;;;23.09;100.00
11327;BME280;5718;42.138;24.762;2023-07-08T02:45:18;99502.13;;;23.03;100.00
11327;BME280;5718;42.138;24.762;2023-07-08T02:47:45;99511.16;;;22.98;100.00
11327;BME280;5718;42.138;24.762;2023-07-08T02:50:13;99516.06;;;23.06;100.00
11327;BME280;5718;42.138;24.762;2023-07-08T02:52:42;99511.16;;;22.98;100.00
11327;BME280;5718;42.138;24.762;2023-07-08T02:55:09;99515.59;;;22.98;100.00
11327;BME280;5718;42.138;24.762;2023-07-08T02:57:35;99526.44;;;22.93;100.00
11327;BME280;5718;42.138;24.762;2023-07-08T03:00:03;99537.03;;;22.93;100.00
11327;BME280;5718;42.138;24.762;2023-07-08T03:02:32;99532.59;;;22.94;100.00
11327;BME280;5718;42.138;24.762;2023-07-08T03:04:58;99523.53;;;22.98;100.00
11327;BME280;5718;42.138;24.762;2023-07-08T03:07:27;99528.84;;;22.98;100.00
11327;BME280;5718;42.138;24.762;2023-07-08T03:09:54;99533.06;;;22.83;100.00
11327;BME280;5718;42.138;24.762;2023-07-08T03:12:21;99543.75;;;22.82;100.00
11327;BME280;5718;42.138;24.762;2023-07-08T03:14:47;99543.56;;;22.86;100.00
11327;BME280;5718;42.138;24.762;2023-07-08T03:17:14;99540.13;;;22.84;100.00
11327;BME280;5718;42.138;24.762;2023-07-08T03:19:43;99546.41;;;22.82;100.00
11327;BME280;5718;42.138;24.762;2023-07-08T03:22:10;99541.97;;;22.82;100.00
11327;BME280;5718;42.138;24.762;2023-07-08T03:24:38;99546.31;;;22.83;100.00
11327;BME280;5718;42.138;24.762;2023-07-08T03:27:11;99542.75;;;22.84;100.00
11327;BME280;5718;42.138;24.762;2023-07-08T03:29:38;99548.09;;;22.83;100.00
11327;BME280;5718;42.138;24.762;2023-07-08T03:32:06;99558.06;;;22.96;100.00
11327;BME280;5718;42.138;24.762;2023-07-08T03:34:34;99552.28;;;22.88;100.00
11327;BME280;5718;42.138;24.762;2023-07-08T03:37:01;99557.22;;;22.96;100.00
11327;BME280;5718;42.138;24.762;2023-07-08T03:39:27;99556.81;;;22.86;100.00
11327;BME280;5718;42.138;24.762;2023-07-08T03:41:57;99572.63;;;22.88;100.00
11327;BME280;5718;42.138;24.762;2023-07-08T03:44:24;99571.53;;;22.73;100.00
11327;BME280;5718;42.138;24.762;2023-07-08T03:46:50;99573.34;;;22.73;100.00
11327;BME280;5718;42.138;24.762;2023-07-08T03:49:18;99585.72;;;22.72;100.00
11327;BME280;5718;42.138;24.762;2023-07-08T03:51:48;99584.00;;;22.71;100.00
11327;BME280;5718;42.138;24.762;2023-07-08T03:54:15;99588.22;;;22.75;100.00
11327;BME280;5718;42.138;24.762;2023-07-08T03:56:42;99586.44;;;22.76;100.00
11327;BME280;5718;42.138;24.762;2023-07-08T03:59:10;99585.72;;;22.72;100.00
11327;BME280;5718;42.138;24.762;2023-07-08T04:01:37;99589.47;;;22.68;100.00
11327;BME280;5718;42.138;24.762;2023-07-08T04:04:06;99597.56;;;22.82;100.00
11327;BME280;5718;42.138;24.762;2023-07-08T04:06:33;99591.34;;;22.83;100.00
11327;BME280;5718;42.138;24.762;2023-07-08T04:09:00;99592.88;;;22.70;100.00
11327;BME280;5718;42.138;24.762;2023-07-08T04:11:27;99605.97;;;22.73;100.00
11327;BME280;5718;42.138;24.762;2023-07-08T04:13:53;99600.16;;;22.84;100.00
11327;BME280;5718;42.138;24.762;2023-07-08T04:16:24;99603.31;;;22.73;100.00
11327;BME280;5718;42.138;24.762;2023-07-08T04:18:53;99600.91;;;22.87;100.00
11327;BME280;5718;42.138;24.762;2023-07-08T04:21:21;99602.88;;;22.82;100.00
11327;BME280;5718;42.138;24.762;2023-07-08T04:23:48;99606.34;;;22.84;100.00
11327;BME280;5718;42.138;24.762;2023-07-08T04:26:15;99607.75;;;22.91;100.00
11327;BME280;5718;42.138;24.762;2023-07-08T04:28:41;99603.22;;;23.12;100.00
11327;BME280;5718;42.138;24.762;2023-07-08T04:31:08;99609.28;;;23.14;100.00
11327;BME280;5718;42.138;24.762;2023-07-08T04:33:37;99601.22;;;23.35;100.00
11327;BME280;5718;42.138;24.762;2023-07-08T04:36:04;99592.53;;;23.48;100.00
11327;BME280;5718;42.138;24.762;2023-07-08T04:38:31;99594.56;;;23.43;100.00
11327;BME280;5718;42.138;24.762;2023-07-08T04:41:02;99594.97;;;23.36;100.00
11327;BME280;5718;42.138;24.762;2023-07-08T04:43:28;99593.56;;;23.46;100.00
11327;BME280;5718;42.138;24.762;2023-07-08T04:45:55;99590.69;;;23.50;100.00
11327;BME280;5718;42.138;24.762;2023-07-08T04:48:23;99583.59;;;23.68;100.00
11327;BME280;5718;42.138;24.762;2023-07-08T04:50:52;99573.97;;;23.66;100.00
11327;BME280;5718;42.138;24.762;2023-07-08T04:53:19;99574.84;;;23.66;100.00
11327;BME280;5718;42.138;24.762;2023-07-08T04:55:48;99566.03;;;23.66;100.00
11327;BME280;5718;42.138;24.762;2023-07-08T04:58:15;99567.28;;;23.59;100.00
11327;BME280;5718;42.138;24.762;2023-07-08T05:00:42;99570.56;;;23.64;100.00
11327;BME280;5718;42.138;24.762;2023-07-08T05:03:08;99563.06;;;23.72;100.00
11327;BME280;5718;42.138;24.762;2023-07-08T05:05:35;99568.03;;;23.78;100.00
11327;BME280;5718;42.138;24.762;2023-07-08T05:08:03;99564.41;;;23.63;100.00
11327;BME280;5718;42.138;24.762;2023-07-08T05:10:30;99562.69;;;23.62;100.00
11327;BME280;5718;42.138;24.762;2023-07-08T05:12:57;99571.47;;;23.80;100.00
11327;BME280;5718;42.138;24.762;2023-07-08T05:15:23;99563.19;;;23.86;100.00
11327;BME280;5718;42.138;24.762;2023-07-08T05:17:51;99575.06;;;23.79;100.00
11327;BME280;5718;42.138;24.762;2023-07-08T05:20:18;99577.88;;;23.76;100.00
11327;BME280;5718;42.138;24.762;2023-07-08T05:22:45;99577.56;;;23.98;100.00
11327;BME280;5718;42.138;24.762;2023-07-08T05:25:14;99570.34;;;24.17;100.00
11327;BME280;5718;42.138;24.762;2023-07-08T05:27:41;99572.19;;;23.99;100.00
11327;BME280;5718;42.138;24.762;2023-07-08T05:30:11;99559.50;;;23.89;100.00
11327;BME280;5718;42.138;24.762;2023-07-08T05:32:39;99569.69;;;23.96;100.00
11327;BME280;5718;42.138;24.762;2023-07-08T05:35:07;99569.53;;;23.99;100.00
11327;BME280;5718;42.138;24.762;2023-07-08T05:37:33;99570.31;;;24.01;100.00
11327;BME280;5718;42.138;24.762;2023-07-08T05:40:00;99569.66;;;24.14;100.00
11327;BME280;5718;42.138;24.762;2023-07-08T05:42:31;99560.41;;;24.21;100.00
11327;BME280;5718;42.138;24.762;2023-07-08T05:44:58;99564.91;;;24.52;100.00
11327;BME280;5718;42.138;24.762;2023-07-08T05:47:24;99554.41;;;24.80;100.00
11327;BME280;5718;42.138;24.762;2023-07-08T05:49:51;99558.53;;;24.86;100.00
11327;BME280;5718;42.138;24.762;2023-07-08T05:52:18;99545.03;;;24.43;100.00
11327;BME280;5718;42.138;24.762;2023-07-08T05:54:45;99546.72;;;24.76;100.00
11327;BME280;5718;42.138;24.762;2023-07-08T05:57:13;99543.88;;;24.79;100.00
11327;BME280;5718;42.138;24.762;2023-07-08T05:59:41;99552.19;;;24.88;100.00
11327;BME280;5718;42.138;24.762;2023-07-08T06:02:10;99550.63;;;25.00;100.00
11327;BME280;5718;42.138;24.762;2023-07-08T06:04:37;99558.84;;;24.96;100.00
11327;BME280;5718;42.138;24.762;2023-07-08T06:07:04;99552.53;;;24.82;100.00
11327;BME280;5718;42.138;24.762;2023-07-08T06:09:31;99543.75;;;24.96;100.00
11327;BME280;5718;42.138;24.762;2023-07-08T06:11:58;99543.97;;;24.77;100.00
11327;BME280;5718;42.138;24.762;2023-07-08T06:14:26;99545.66;;;25.10;100.00
11327;BME280;5718;42.138;24.762;2023-07-08T06:16:54;99551.84;;;24.94;100.00
11327;BME280;5718;42.138;24.762;2023-07-08T06:19:21;99538.88;;;25.04;100.00
11327;BME280;5718;42.138;24.762;2023-07-08T06:21:47;99549.31;;;25.37;97.31
11327;BME280;5718;42.138;24.762;2023-07-08T06:24:14;99546.13;;;25.61;97.42
11327;BME280;5718;42.138;24.762;2023-07-08T06:26:41;99548.53;;;25.65;96.65
11327;BME280;5718;42.138;24.762;2023-07-08T06:29:08;99546.63;;;25.96;93.53
11327;BME280;5718;42.138;24.762;2023-07-08T06:31:35;99546.19;;;25.75;95.21
11327;BME280;5718;42.138;24.762;2023-07-08T06:34:03;99548.28;;;25.84;96.11
11327;BME280;5718;42.138;24.762;2023-07-08T06:36:30;99543.97;;;25.96;93.22
11327;BME280;5718;42.138;24.762;2023-07-08T06:38:57;99542.38;;;25.93;94.23
11327;BME280;5718;42.138;24.762;2023-07-08T06:41:23;99548.34;;;26.11;92.38
11327;BME280;5718;42.138;24.762;2023-07-08T06:43:50;99544.88;;;26.38;91.85
11327;BME280;5718;42.138;24.762;2023-07-08T06:46:18;99552.22;;;26.48;87.65
11327;BME280;5718;42.138;24.762;2023-07-08T06:48:45;99553.09;;;26.88;83.66
11327;BME280;5718;42.138;24.762;2023-07-08T06:51:13;99551.84;;;27.21;81.15
11327;BME280;5718;42.138;24.762;2023-07-08T06:53:40;99551.50;;;26.59;81.60
11327;BME280;5718;42.138;24.762;2023-07-08T06:56:06;99557.56;;;26.75;80.23
11327;BME280;5718;42.138;24.762;2023-07-08T06:58:33;99558.03;;;26.95;82.63
11327;BME280;5718;42.138;24.762;2023-07-08T07:01:00;99557.16;;;26.81;81.46
11327;BME280;5718;42.138;24.762;2023-07-08T07:03:27;99556.09;;;26.57;81.20
11327;BME280;5718;42.138;24.762;2023-07-08T07:05:54;99548.69;;;26.48;81.44
11327;BME280;5718;42.138;24.762;2023-07-08T07:08:22;99563.59;;;26.65;81.37
11327;BME280;5718;42.138;24.762;2023-07-08T07:10:49;99562.84;;;27.29;77.46
11327;BME280;5718;42.138;24.762;2023-07-08T07:13:15;99558.63;;;27.65;72.57
11327;BME280;5718;42.138;24.762;2023-07-08T07:15:42;99567.16;;;27.95;69.78
11327;BME280;5718;42.138;24.762;2023-07-08T07:18:09;99565.72;;;27.39;74.09
11327;BME280;5718;42.138;24.762;2023-07-08T07:20:36;99568.88;;;27.06;75.56
11327;BME280;5718;42.138;24.762;2023-07-08T07:23:04;99574.25;;;26.92;75.95
11327;BME280;5718;42.138;24.762;2023-07-08T07:25:32;99571.22;;;26.83;75.46
11327;BME280;5718;42.138;24.762;2023-07-08T07:27:58;99585.59;;;26.81;77.59
11327;BME280;5718;42.138;24.762;2023-07-08T07:30:26;99578.75;;;26.50;80.16
11327;BME280;5718;42.138;24.762;2023-07-08T07:32:53;99590.34;;;26.35;82.08
11327;BME280;5718;42.138;24.762;2023-07-08T07:35:19;99593.03;;;26.49;82.63
11327;BME280;5718;42.138;24.762;2023-07-08T07:37:46;99596.38;;;26.24;83.82
11327;BME280;5718;42.138;24.762;2023-07-08T07:40:13;99591.13;;;26.51;83.10
11327;BME280;5718;42.138;24.762;2023-07-08T07:42:43;99589.19;;;26.67;80.25
11327;BME280;5718;42.138;24.762;2023-07-08T07:45:10;99592.03;;;26.64;82.55
11327;BME280;5718;42.138;24.762;2023-07-08T07:47:37;99594.06;;;26.87;79.67
11327;BME280;5718;42.138;24.762;2023-07-08T07:50:06;99582.63;;;26.58;81.98
11327;BME280;5718;42.138;24.762;2023-07-08T07:52:33;99595.06;;;26.72;78.92
11327;BME280;5718;42.138;24.762;2023-07-08T07:54:59;99595.06;;;26.72;79.88
11327;BME280;5718;42.138;24.762;2023-07-08T07:57:26;99597.44;;;26.77;78.81
11327;BME280;5718;42.138;24.762;2023-07-08T07:59:54;99597.69;;;27.13;76.30
11327;BME280;5718;42.138;24.762;2023-07-08T08:02:21;99598.97;;;27.60;71.75
11327;BME280;5718;42.138;24.762;2023-07-08T08:04:48;99598.53;;;27.41;73.09
11327;BME280;5718;42.138;24.762;2023-07-08T08:07:14;99595.28;;;27.23;73.98
11327;BME280;5718;42.138;24.762;2023-07-08T08:09:41;99605.75;;;27.26;73.42
11327;BME280;5718;42.138;24.762;2023-07-08T08:12:10;99607.19;;;27.57;71.38
11327;BME280;5718;42.138;24.762;2023-07-08T08:14:37;99608.22;;;27.82;68.22
11327;BME280;5718;42.138;24.762;2023-07-08T08:17:05;99615.25;;;27.83;66.53
11327;BME280;5718;42.138;24.762;2023-07-08T08:19:32;99610.97;;;27.80;65.57
11327;BME280;5718;42.138;24.762;2023-07-08T08:21:58;99608.84;;;27.85;65.41
11327;BME280;5718;42.138;24.762;2023-07-08T08:24:25;99610.09;;;28.18;65.26
11327;BME280;5718;42.138;24.762;2023-07-08T08:26:52;99603.38;;;28.38;62.39
11327;BME280;5718;42.138;24.762;2023-07-08T08:29:19;99607.34;;;28.69;60.79
11327;BME280;5718;42.138;24.762;2023-07-08T08:31:45;99605.69;;;28.92;60.21
11327;BME280;5718;42.138;24.762;2023-07-08T08:34:13;99608.66;;;28.87;60.04
11327;BME280;5718;42.138;24.762;2023-07-08T08:36:40;99601.75;;;28.48;60.43
11327;BME280;5718;42.138;24.762;2023-07-08T08:39:08;99599.09;;;28.22;62.66
11327;BME280;5718;42.138;24.762;2023-07-08T08:41:36;99613.94;;;28.89;59.77
11327;BME280;5718;42.138;24.762;2023-07-08T08:44:04;99612.00;;;29.15;58.39
11327;BME280;5718;42.138;24.762;2023-07-08T08:46:38;99613.09;;;29.47;57.72
11327;BME280;5718;42.138;24.762;2023-07-08T08:49:18;99621.97;;;29.83;56.19
11327;BME280;5718;42.138;24.762;2023-07-08T08:51:48;99617.97;;;30.00;52.34
11327;BME280;5718;42.138;24.762;2023-07-08T08:54:15;99626.66;;;28.85;54.63
11327;BME280;5718;42.138;24.762;2023-07-08T08:56:51;99625.25;;;28.56;56.06
11327;BME280;5718;42.138;24.762;2023-07-08T08:59:27;99618.94;;;28.93;56.11
11327;BME280;5718;42.138;24.762;2023-07-08T09:01:55;99638.75;;;29.62;54.01
11327;BME280;5718;42.138;24.762;2023-07-08T09:04:27;99629.88;;;29.38;53.79
11327;BME280;5718;42.138;24.762;2023-07-08T09:07:01;99630.91;;;28.88;54.67
11327;BME280;5718;42.138;24.762;2023-07-08T09:09:33;99633.06;;;28.95;56.52
11327;BME280;5718;42.138;24.762;2023-07-08T09:12:04;99631.59;;;28.91;56.82
11327;BME280;5718;42.138;24.762;2023-07-08T09:14:33;99624.75;;;29.11;54.75
11327;BME280;5718;42.138;24.762;2023-07-08T09:17:14;99628.69;;;29.18;53.71
11327;BME280;5718;42.138;24.762;2023-07-08T09:19:45;99618.13;;;29.28;54.22
11327;BME280;5718;42.138;24.762;2023-07-08T09:22:16;99617.53;;;29.59;52.92
11327;BME280;5718;42.138;24.762;2023-07-08T09:24:49;99614.41;;;29.77;53.80
11327;BME280;5718;42.138;24.762;2023-07-08T09:27:17;99608.03;;;28.96;54.06
11327;BME280;5718;42.138;24.762;2023-07-08T09:29:46;99616.63;;;29.83;53.58
11327;BME280;5718;42.138;24.762;2023-07-08T09:32:17;99615.09;;;30.47;51.24
11327;BME280;5718;42.138;24.762;2023-07-08T09:34:49;99604.13;;;30.73;50.25
11327;BME280;5718;42.138;24.762;2023-07-08T09:37:25;99609.75;;;30.25;50.06
11327;BME280;5718;42.138;24.762;2023-07-08T09:39:53;99596.22;;;30.38;49.90
11327;BME280;5718;42.138;24.762;2023-07-08T09:42:22;99585.69;;;30.01;51.34
11327;BME280;5718;42.138;24.762;2023-07-08T09:44:54;99589.50;;;30.32;50.51
11327;BME280;5718;42.138;24.762;2023-07-08T09:47:23;99582.38;;;30.76;49.82
11327;BME280;5718;42.138;24.762;2023-07-08T09:49:52;99581.81;;;30.50;50.34
11327;BME280;5718;42.138;24.762;2023-07-08T09:52:19;99579.50;;;31.00;48.46
11327;BME280;5718;42.138;24.762;2023-07-08T09:54:46;99566.91;;;30.80;47.94
11327;BME280;5718;42.138;24.762;2023-07-08T09:57:22;99575.09;;;29.66;51.38
11327;BME280;5718;42.138;24.762;2023-07-08T09:59:55;99567.19;;;29.87;50.23
11327;BME280;5718;42.138;24.762;2023-07-08T10:02:32;99570.09;;;29.95;49.93
11327;BME280;5718;42.138;24.762;2023-07-08T10:05:03;99554.75;;;29.86;50.13
11327;BME280;5718;42.138;24.762;2023-07-08T10:07:37;99563.91;;;30.06;50.73
11327;BME280;5718;42.138;24.762;2023-07-08T10:10:08;99568.13;;;30.64;48.26
11327;BME280;5718;42.138;24.762;2023-07-08T10:12:38;99571.50;;;30.89;47.92
11327;BME280;5718;42.138;24.762;2023-07-08T10:15:25;99564.53;;;31.18;47.13
11327;BME280;5718;42.138;24.762;2023-07-08T10:17:53;99562.53;;;31.73;46.14
11327;BME280;5718;42.138;24.762;2023-07-08T10:20:22;99557.72;;;31.25;45.17
11327;BME280;5718;42.138;24.762;2023-07-08T10:23:01;99568.50;;;31.03;45.71
11327;BME280;5718;42.138;24.762;2023-07-08T10:25:37;99558.75;;;30.70;46.75
11327;BME280;5718;42.138;24.762;2023-07-08T10:28:24;99547.81;;;31.26;46.38
11327;BME280;5718;42.138;24.762;2023-07-08T10:31:04;99542.38;;;31.58;45.92
11327;BME280;5718;42.138;24.762;2023-07-08T10:33:57;99537.59;;;31.20;46.89
11327;BME280;5718;42.138;24.762;2023-07-08T10:36:40;99543.41;;;31.04;46.86
11327;BME280;5718;42.138;24.762;2023-07-08T10:39:35;99538.06;;;31.46;45.62
11327;BME280;5718;42.138;24.762;2023-07-08T10:42:15;99531.69;;;31.89;43.92
11327;BME280;5718;42.138;24.762;2023-07-08T10:44:55;99530.81;;;31.67;44.04
11327;BME280;5718;42.138;24.762;2023-07-08T10:47:42;99512.81;;;31.16;44.64
11327;BME280;5718;42.138;24.762;2023-07-08T10:50:24;99517.63;;;31.13;45.29
11327;BME280;5718;42.138;24.762;2023-07-08T10:53:09;99512.16;;;31.66;43.90
11327;BME280;5718;42.138;24.762;2023-07-08T10:55:47;99516.56;;;31.88;43.93
11327;BME280;5718;42.138;24.762;2023-07-08T11:01:22;99515.09;;;32.24;43.74
11327;BME280;5718;42.138;24.762;2023-07-08T11:04:13;99515.41;;;32.30;43.25
11327;BME280;5718;42.138;24.762;2023-07-08T11:06:47;99512.69;;;32.21;41.82
11327;BME280;5718;42.138;24.762;2023-07-08T11:09:22;99515.22;;;32.72;41.98
11327;BME280;5718;42.138;24.762;2023-07-08T11:11:53;99506.56;;;32.59;41.59
11327;BME280;5718;42.138;24.762;2023-07-08T11:14:26;99507.69;;;32.66;40.80
11327;BME280;5718;42.138;24.762;2023-07-08T11:17:08;99505.63;;;31.79;42.56
11327;BME280;5718;42.138;24.762;2023-07-08T11:19:40;99502.19;;;31.26;43.73
11327;BME280;5718;42.138;24.762;2023-07-08T11:22:11;99502.38;;;31.34;43.73
11327;BME280;5718;42.138;24.762;2023-07-08T11:24:43;99503.72;;;32.01;42.63
11327;BME280;5718;42.138;24.762;2023-07-08T11:27:15;99501.34;;;32.07;41.97
11327;BME280;5718;42.138;24.762;2023-07-08T11:29:50;99499.72;;;32.35;41.73
11327;BME280;5718;42.138;24.762;2023-07-08T11:32:20;99500.31;;;32.58;42.44
11327;BME280;5718;42.138;24.762;2023-07-08T11:34:50;99500.75;;;32.44;42.28
11327;BME280;5718;42.138;24.762;2023-07-08T11:37:18;99491.94;;;31.62;43.61
11327;BME280;5718;42.138;24.762;2023-07-08T11:39:53;99500.28;;;31.68;44.05
11327;BME280;5718;42.138;24.762;2023-07-08T11:42:23;99493.31;;;31.56;43.20
11327;BME280;5718;42.138;24.762;2023-07-08T11:44:53;99480.56;;;31.27;44.03
11327;BME280;5718;42.138;24.762;2023-07-08T11:47:25;99477.19;;;31.56;43.73
11327;BME280;5718;42.138;24.762;2023-07-08T11:49:53;99475.94;;;31.60;43.03
11327;BME280;5718;42.138;24.762;2023-07-08T11:52:22;99483.31;;;31.68;43.95
11327;BME280;5718;42.138;24.762;2023-07-08T11:54:58;99485.19;;;31.98;43.75
11327;BME280;5718;42.138;24.762;2023-07-08T11:57:28;99485.84;;;31.90;43.43
11327;BME280;5718;42.138;24.762;2023-07-08T12:00:14;99484.56;;;31.84;43.54
11327;BME280;5718;42.138;24.762;2023-07-08T12:05:16;99488.22;;;31.83;44.06
11327;BME280;5718;42.138;24.762;2023-07-08T12:07:45;99486.16;;;32.66;42.36
11327;BME280;5718;42.138;24.762;2023-07-08T12:10:16;99481.78;;;33.13;40.32
11327;BME280;5718;42.138;24.762;2023-07-08T12:12:45;99484.38;;;32.95;40.92
11327;BME280;5718;42.138;24.762;2023-07-08T12:15:16;99478.38;;;32.73;41.57
11327;BME280;5718;42.138;24.762;2023-07-08T12:17:43;99469.47;;;32.91;41.23
11327;BME280;5718;42.138;24.762;2023-07-08T12:20:17;99473.88;;;32.92;41.15
11327;BME280;5718;42.138;24.762;2023-07-08T12:22:46;99472.03;;;32.45;40.74
11327;BME280;5718;42.138;24.762;2023-07-08T12:25:17;99479.00;;;32.17;42.03
11327;BME280;5718;42.138;24.762;2023-07-08T12:27:45;99480.78;;;32.56;41.09
11327;BME280;5718;42.138;24.762;2023-07-08T12:30:13;99484.47;;;32.75;40.65
11327;BME280;5718;42.138;24.762;2023-07-08T12:32:41;99475.25;;;32.58;41.03
11327;BME280;5718;42.138;24.762;2023-07-08T12:35:18;99478.81;;;32.49;41.77
11327;BME280;5718;42.138;24.762;2023-07-08T12:37:47;99482.66;;;32.06;42.64
11327;BME280;5718;42.138;24.762;2023-07-08T12:40:16;99488.06;;;32.15;41.73
11327;BME280;5718;42.138;24.762;2023-07-08T12:42:43;99490.84;;;31.95;41.48
11327;BME280;5718;42.138;24.762;2023-07-08T12:45:16;99495.66;;;32.01;41.17
11327;BME280;5718;42.138;24.762;2023-07-08T12:47:44;99497.50;;;32.60;40.92
11327;BME280;5718;42.138;24.762;2023-07-08T12:50:12;99509.69;;;32.64;39.92
11327;BME280;5718;42.138;24.762;2023-07-08T12:52:39;99527.13;;;32.79;39.72
11327;BME280;5718;42.138;24.762;2023-07-08T12:55:09;99525.56;;;32.27;42.68
11327;BME280;5718;42.138;24.762;2023-07-08T12:57:40;99519.66;;;30.45;47.52
11327;BME280;5718;42.138;24.762;2023-07-08T13:00:13;99510.22;;;29.62;52.17
11327;BME280;5718;42.138;24.762;2023-07-08T13:02:44;99518.84;;;29.55;52.46
11327;BME280;5718;42.138;24.762;2023-07-08T13:05:12;99521.03;;;29.50;54.34
11327;BME280;5718;42.138;24.762;2023-07-08T13:07:41;99529.88;;;28.80;57.38
11327;BME280;5718;42.138;24.762;2023-07-08T13:10:20;99528.41;;;27.64;68.88
11327;BME280;5718;42.138;24.762;2023-07-08T13:12:52;99523.50;;;27.58;74.92